Kent, Alabama
Current Conditions -  °F | °C
As of 8:35 AM on Saturday 25 Oct 2014 (Local Time) from KALX Reporting Station
Clear Clear  
Wind Chill: 54°   Ceiling: Unl
Heat Index: 54°   Visibility: 10mi
Dew Point: 50°   Wind: 3mph
Humidity: 86%   Direction: 360°N
Pressure: 30.1"   Gusts: NA
Location:  32.62°N, 85.95°W
Report Text: KALX 251335Z AUTO 36003KT 10SM CLR 12/10 A3010 RMK AO2 T01200098
Loading
Personal Weather Stations






























Interactive Weather Map
Tropical Storm Tracking
New forecast layout! Learn more

10-Day Weather Forecast

Advertisements
Track Severe Weather on mobile